Time;durP1;ratioP1;P1;durP2;ratioP2;P2;SDS_P1;SDS_P2;PMS_P1;PMS_P2;Temp;Humidity;BMP_temperature;BMP_pressure;BME280_temperature;BME280_humidity;BME280_pressure;Samples;Min_cycle;Max_cycle;Signal;HPM_P1;HPM_P2
2021/03/31 00:00:41;;;;;;;0.37;0.37;;;;;;;-0.55;78.15;102158.84;1759358;81;21603;-47
2021/03/31 00:03:14;;;;;;;0.33;0.33;;;;;;;-0.52;78.43;102152.30;1734541;81;21178;-48
2021/03/31 00:05:42;;;;;;;0.10;0.10;;;;;;;-0.50;78.55;102149.79;1737872;81;27652;-47
2021/03/31 00:08:10;;;;;;;0.40;0.40;;;;;;;-0.47;78.83;102152.65;1754477;81;21115;-47
2021/03/31 00:10:47;;;;;;;0.85;0.70;;;;;;;-0.43;79.01;102152.67;1759555;81;21147;-47
2021/03/31 00:13:16;;;;;;;1.55;1.25;;;;;;;-0.40;78.98;102154.18;1787091;80;21235;-47
2021/03/31 00:15:45;;;;;;;1.77;0.37;;;;;;;-0.38;79.00;102158.89;1787194;80;21142;-47
2021/03/31 00:18:13;;;;;;;0.20;0.20;;;;;;;-0.40;79.00;102151.50;1787126;80;21139;-47
2021/03/31 00:20:41;;;;;;;2.02;1.92;;;;;;;-0.40;79.00;102146.13;1758651;80;21123;-47
2021/03/31 00:23:12;;;;;;;0.13;0.13;;;;;;;-0.44;79.09;102141.09;1758344;80;21174;-47
2021/03/31 00:25:39;;;;;;;0.35;0.35;;;;;;;-0.44;79.15;102134.38;1759895;81;21577;-48
2021/03/31 00:28:08;;;;;;;0.98;0.98;;;;;;;-0.45;79.29;102141.24;1787601;80;21119;-47
2021/03/31 00:30:36;;;;;;;0.40;0.40;;;;;;;-0.44;79.37;102143.78;1787416;80;21154;-48
2021/03/31 00:33:04;;;;;;;0.40;0.28;;;;;;;-0.42;79.40;102134.70;1787482;80;21178;-47
2021/03/31 00:35:31;;;;;;;0.20;0.20;;;;;;;-0.42;79.41;102136.05;1787550;80;21114;-48
2021/03/31 00:37:59;;;;;;;1.55;0.40;;;;;;;-0.46;79.45;102135.04;1793984;79;21112;-47
2021/03/31 00:40:31;;;;;;;0.47;0.47;;;;;;;-0.46;79.54;102136.38;1737781;82;21865;-47
2021/03/31 00:42:59;;;;;;;0.55;0.55;;;;;;;-0.46;79.57;102128.84;1767948;81;21150;-48
2021/03/31 00:45:27;;;;;;;0.42;0.42;;;;;;;-0.47;79.70;102126.66;1737576;82;21134;-47
2021/03/31 00:47:55;;;;;;;1.07;0.75;;;;;;;-0.44;79.88;102133.55;1767774;81;21577;-48
2021/03/31 00:50:22;;;;;;;0.10;0.10;;;;;;;-0.38;79.89;102128.84;1767830;81;21162;-47
2021/03/31 00:52:52;;;;;;;0.65;0.50;;;;;;;-0.34;79.80;102129.36;1737656;82;21221;-47
2021/03/31 00:55:23;;;;;;;0.47;0.47;;;;;;;-0.33;79.78;102120.28;1767912;81;21151;-47
2021/03/31 00:57:51;;;;;;;0.08;0.08;;;;;;;-0.33;79.76;102121.63;1767706;81;21155;-47
2021/03/31 01:00:19;;;;;;;0.98;0.98;;;;;;;-0.35;79.74;102119.60;1767696;81;21122;-47
2021/03/31 01:02:46;;;;;;;0.30;0.30;;;;;;;-0.35;79.81;102117.75;1737645;81;21232;-47
2021/03/31 01:05:24;;;;;;;0.10;0.10;;;;;;;-0.33;79.78;102120.28;1767918;81;21181;-47
2021/03/31 01:07:51;;;;;;;0.10;0.10;;;;;;;-0.33;79.79;102119.77;1767676;81;21150;-47
2021/03/31 01:10:36;;;;;;;0.10;0.10;;;;;;;-0.32;79.75;102120.61;1767910;81;21118;-47
2021/03/31 01:13:29;;;;;;;0.10;0.10;;;;;;;-0.30;79.71;102119.94;1767910;81;21166;-47
2021/03/31 01:16:27;;;;;;;0.33;0.33;;;;;;;-0.30;79.65;102118.59;1737773;82;21123;-47
2021/03/31 01:19:01;;;;;;;0.53;0.53;;;;;;;-0.30;79.61;102119.43;1766825;81;21178;-47
2021/03/31 01:22:07;;;;;;;1.17;0.60;;;;;;;-0.28;79.52;102113.39;1737145;81;21007;-47
2021/03/31 01:25:14;;;;;;;1.22;1.20;;;;;;;-0.29;79.42;102116.27;1767685;81;21143;-48
2021/03/31 01:28:02;;;;;;;0.15;0.15;;;;;;;-0.32;79.41;102110.73;1767829;81;21426;-47
2021/03/31 01:30:52;;;;;;;0.33;0.33;;;;;;;-0.33;79.43;102106.85;1737739;82;21122;-48
2021/03/31 01:33:49;;;;;;;0.10;0.10;;;;;;;-0.35;79.38;102107.52;1768056;81;21411;-47
2021/03/31 01:36:17;;;;;;;0.00;0.00;;;;;;;-0.38;79.41;102111.89;1767943;81;21151;-47
2021/03/31 01:38:51;;;;;;;0.35;0.25;;;;;;;-0.40;79.45;102113.89;1739947;81;21517;-47
2021/03/31 01:41:19;;;;;;;0.50;0.50;;;;;;;-0.43;79.45;102108.35;1762495;81;21119;-47
2021/03/31 01:43:49;;;;;;;0.10;0.10;;;;;;;-0.44;79.56;102110.20;1748255;81;21689;-47
2021/03/31 01:46:19;;;;;;;0.40;0.40;;;;;;;-0.41;79.56;102102.83;1754128;80;21163;-47
2021/03/31 01:48:47;;;;;;;0.75;0.75;;;;;;;-0.41;79.52;102102.83;1753257;81;21541;-47
2021/03/31 01:51:14;;;;;;;2.40;0.72;;;;;;;-0.42;79.62;102103.81;1784404;80;21103;-47
2021/03/31 01:53:43;;;;;;;0.17;0.17;;;;;;;-0.40;79.68;102107.17;1700725;81;21134;-47
2021/03/31 01:56:11;;;;;;;0.10;0.10;;;;;;;-0.38;79.73;102098.45;1784374;80;21162;-47
2021/03/31 01:58:38;;;;;;;0.90;0.65;;;;;;;-0.36;79.83;102096.45;1753801;80;21150;-48
2021/03/31 02:01:07;;;;;;;0.20;0.20;;;;;;;-0.34;79.86;102090.41;1700240;81;21150;-47
2021/03/31 02:03:35;;;;;;;2.52;0.57;;;;;;;-0.33;79.89;102093.42;1784231;80;21135;-47
2021/03/31 02:06:06;;;;;;;0.10;0.10;;;;;;;-0.33;79.88;102095.59;1748237;81;21119;-47
2021/03/31 02:08:33;;;;;;;0.35;0.35;;;;;;;-0.32;79.93;102089.23;1784054;80;21950;-48
2021/03/31 02:11:02;;;;;;;0.57;0.50;;;;;;;-0.30;79.97;102082.33;1746880;81;21150;-48
2021/03/31 02:13:30;;;;;;;0.90;0.90;;;;;;;-0.30;79.92;102094.42;1784114;80;21186;-47
2021/03/31 02:15:58;;;;;;;0.33;0.33;;;;;;;-0.31;79.86;102092.75;1748482;81;21162;-48
2021/03/31 02:18:28;;;;;;;0.30;0.30;;;;;;;-0.33;79.88;102090.73;1779254;80;21091;-48
2021/03/31 02:20:55;;;;;;;0.98;0.88;;;;;;;-0.31;79.96;102088.73;1748327;81;21168;-48
2021/03/31 02:23:23;;;;;;;1.10;0.85;;;;;;;-0.29;79.92;102089.41;1779053;80;21162;-47
2021/03/31 02:25:51;;;;;;;3.83;0.40;;;;;;;-0.27;79.92;102087.39;1753146;81;21151;-47
2021/03/31 02:28:18;;;;;;;0.30;0.30;;;;;;;-0.25;79.90;102083.53;1753823;80;21233;-47
2021/03/31 02:30:45;;;;;;;0.30;0.30;;;;;;;-0.22;79.97;102079.67;1753247;81;21613;-48
2021/03/31 02:33:13;;;;;;;0.10;0.10;;;;;;;-0.19;79.91;102075.30;1754158;80;21215;-48
2021/03/31 02:35:43;;;;;;;4.42;1.90;;;;;;;-0.16;79.89;102072.27;1753300;81;21187;-48
2021/03/31 02:38:13;;;;;;;0.57;0.28;;;;;;;-0.13;79.88;102063.02;1784126;80;21151;-48
2021/03/31 02:40:45;;;;;;;0.40;0.40;;;;;;;-0.10;79.81;102072.08;1789128;79;21414;-47
2021/03/31 02:43:14;;;;;;;0.10;0.10;;;;;;;-0.09;79.75;102065.72;1749751;82;21489;-48
2021/03/31 02:45:45;;;;;;;0.68;0.68;;;;;;;-0.07;79.66;102069.08;1753374;81;21124;-48
2021/03/31 02:48:15;;;;;;;0.42;0.30;;;;;;;-0.05;79.57;102072.41;1749801;81;21211;-47
2021/03/31 02:50:43;;;;;;;0.20;0.20;;;;;;;-0.06;79.49;102068.89;1753333;81;21151;-48
2021/03/31 02:53:11;;;;;;;1.25;1.12;;;;;;;-0.05;79.40;102064.34;1744537;82;21151;-48
2021/03/31 02:55:40;;;;;;;0.30;0.30;;;;;;;-0.05;79.37;102071.06;1753000;81;21170;-48
2021/03/31 02:58:09;;;;;;;7.33;1.45;;;;;;;-0.04;79.30;102069.56;1749554;81;21119;-48
2021/03/31 03:00:37;;;;;;;0.20;0.20;;;;;;;-0.03;79.23;102060.48;1753260;81;21155;-47
2021/03/31 03:03:06;;;;;;;0.10;0.10;;;;;;;-0.01;79.23;102067.04;1769200;80;21194;-47
2021/03/31 03:05:33;;;;;;;0.17;0.17;;;;;;;-0.01;79.13;102059.81;1711784;81;21906;-47
2021/03/31 03:08:03;;;;;;;0.50;0.50;;;;;;;0.01;79.08;102068.23;1752941;80;21103;-47
2021/03/31 03:10:31;;;;;;;1.17;1.17;;;;;;;0.01;79.01;102056.13;1803197;79;21108;-47
2021/03/31 03:13:00;;;;;;;0.28;0.28;;;;;;;0.03;78.88;102060.33;1784355;80;21194;-48
2021/03/31 03:15:30;;;;;;;1.85;0.93;;;;;;;0.01;78.79;102054.79;1785673;79;21546;-48
2021/03/31 03:17:59;;;;;;;0.62;0.62;;;;;;;0.01;78.78;102050.76;1784216;80;21127;-47
2021/03/31 03:20:27;;;;;;;0.10;0.10;;;;;;;-0.02;78.75;102048.73;1784309;80;21549;-48
2021/03/31 03:22:55;;;;;;;1.07;0.72;;;;;;;-0.02;78.65;102049.25;1784339;80;21122;-47
2021/03/31 03:25:25;;;;;;;0.68;0.68;;;;;;;-0.04;78.61;102046.72;1751641;80;21479;-47
2021/03/31 03:27:52;;;;;;;0.47;0.40;;;;;;;-0.05;78.55;102051.77;1784269;80;21134;-47
2021/03/31 03:30:21;;;;;;;1.12;1.12;;;;;;;-0.06;78.52;102044.70;1753631;80;21171;-48
2021/03/31 03:32:50;;;;;;;0.17;0.17;;;;;;;-0.06;78.51;102043.87;1783955;80;21533;-47
2021/03/31 03:35:21;;;;;;;0.45;0.45;;;;;;;-0.05;78.49;102046.40;1784008;80;21123;-47
2021/03/31 03:37:49;;;;;;;0.23;0.23;;;;;;;-0.03;78.41;102051.07;1784097;80;21134;-48
2021/03/31 03:40:20;;;;;;;0.10;0.10;;;;;;;0.00;78.36;102051.27;1779029;80;21159;-47
2021/03/31 03:42:47;;;;;;;0.10;0.10;;;;;;;0.01;78.30;102048.06;1753092;81;21111;-47
2021/03/31 03:45:16;;;;;;;2.02;0.85;;;;;;;0.03;78.32;102044.20;1753881;80;21147;-48
2021/03/31 03:47:43;;;;;;;1.47;0.55;;;;;;;0.08;78.29;102050.41;1792690;79;21133;-48
2021/03/31 03:50:13;;;;;;;0.30;0.30;;;;;;;0.12;78.17;102047.69;1790839;80;21131;-48
2021/03/31 03:52:46;;;;;;;0.08;0.08;;;;;;;0.17;78.19;102046.67;1787265;80;21483;-48
2021/03/31 03:55:18;;;;;;;0.47;0.42;;;;;;;0.23;78.14;102044.66;1790811;80;21581;-48
2021/03/31 03:57:46;;;;;;;0.57;0.57;;;;;;;0.32;78.04;102042.28;1787608;80;22442;-47
2021/03/31 04:00:17;;;;;;;0.35;0.35;;;;;;;0.42;77.88;102037.55;1791137;80;21151;-47
2021/03/31 04:02:46;;;;;;;0.42;0.42;;;;;;;0.51;77.76;102031.61;1787726;80;21150;-48
2021/03/31 04:05:15;;;;;;;1.75;0.82;;;;;;;0.61;77.58;102025.52;1790931;80;21174;-47
2021/03/31 04:07:42;;;;;;;0.28;0.28;;;;;;;0.71;77.33;102025.30;1787591;80;21110;-47
2021/03/31 04:10:10;;;;;;;1.10;0.75;;;;;;;0.81;77.02;102023.73;1791066;80;21118;-47
2021/03/31 04:12:39;;;;;;;0.72;0.55;;;;;;;0.91;76.80;102030.25;1787244;80;21476;-47
2021/03/31 04:15:08;;;;;;;0.33;0.33;;;;;;;1.00;76.47;102029.20;1791119;80;20980;-47
2021/03/31 04:17:39;;;;;;;1.10;1.10;;;;;;;1.10;76.17;102031.66;1787505;80;21008;-48
2021/03/31 04:20:16;;;;;;;2.05;1.45;;;;;;;1.17;75.87;102033.46;1790948;80;21103;-48
2021/03/31 04:22:48;;;;;;;0.85;0.85;;;;;;;1.26;75.50;102025.66;1787128;80;21489;-47
2021/03/31 04:25:18;;;;;;;0.45;0.30;;;;;;;1.36;75.26;102025.91;1790885;80;21099;-48
2021/03/31 04:27:48;;;;;;;1.02;0.62;;;;;;;1.44;75.14;102019.13;1787296;80;21126;-47
2021/03/31 04:30:16;;;;;;;0.40;0.40;;;;;;;1.52;74.68;102021.75;1790709;80;21411;-48
2021/03/31 04:32:45;;;;;;;0.72;0.72;;;;;;;1.61;74.47;102018.50;1787317;80;21143;-47
2021/03/31 04:35:13;;;;;;;0.17;0.17;;;;;;;1.68;74.21;102017.58;1790727;80;21135;-47
2021/03/31 04:37:41;;;;;;;1.32;0.68;;;;;;;1.78;73.86;102015.12;1784472;80;21135;-47
2021/03/31 04:40:13;;;;;;;0.10;0.10;;;;;;;1.86;73.42;102006.98;1778971;80;21578;-47
2021/03/31 04:42:41;;;;;;;0.65;0.65;;;;;;;1.97;73.28;102009.72;1761716;81;21094;-48
2021/03/31 04:45:13;;;;;;;1.20;0.75;;;;;;;2.06;73.12;102007.27;1773282;80;21156;-47
2021/03/31 04:47:40;;;;;;;0.62;0.62;;;;;;;2.15;72.85;102013.74;1761801;81;21999;-48
2021/03/31 04:50:10;;;;;;;0.17;0.17;;;;;;;2.24;72.47;102010.95;1773333;80;21108;-47
2021/03/31 04:52:38;;;;;;;0.30;0.30;;;;;;;2.34;72.16;102016.37;1761708;81;21581;-48
2021/03/31 04:55:08;;;;;;;0.10;0.10;;;;;;;2.43;71.96;102007.69;1773166;80;20993;-47
2021/03/31 04:57:35;;;;;;;0.30;0.30;;;;;;;2.50;71.64;102003.22;1761568;81;21145;-47
2021/03/31 05:00:05;;;;;;;0.25;0.25;;;;;;;2.62;71.20;102002.72;1773201;80;21475;-47
2021/03/31 05:02:32;;;;;;;0.45;0.45;;;;;;;2.71;70.88;102006.99;1760987;81;20960;-47
2021/03/31 05:05:00;;;;;;;0.15;0.15;;;;;;;2.82;70.42;102000.25;1773211;80;21151;-47
2021/03/31 05:07:29;;;;;;;0.30;0.30;;;;;;;2.92;70.24;101996.24;1761564;81;21142;-48
2021/03/31 05:09:57;;;;;;;0.23;0.23;;;;;;;3.01;70.12;102000.48;1773370;80;21163;-47
2021/03/31 05:12:25;;;;;;;0.45;0.45;;;;;;;3.12;69.58;102000.50;1761574;81;21118;-48
2021/03/31 05:14:52;;;;;;;0.60;0.60;;;;;;;3.22;69.53;102002.89;1773275;80;21151;-47
2021/03/31 05:17:20;;;;;;;0.47;0.47;;;;;;;3.31;69.17;102000.36;1761710;81;21130;-47
2021/03/31 05:19:48;;;;;;;0.40;0.37;;;;;;;3.42;68.68;102002.55;1748768;80;21163;-47
2021/03/31 05:22:16;;;;;;;1.17;1.05;;;;;;;3.55;68.50;102001.00;1766442;80;21120;-47
2021/03/31 05:24:43;;;;;;;1.30;0.75;;;;;;;3.65;68.18;102005.55;1769562;79;21123;-47
2021/03/31 05:27:11;;;;;;;1.32;1.05;;;;;;;3.74;67.71;102003.04;1769078;80;21118;-48
2021/03/31 05:29:40;;;;;;;0.10;0.10;;;;;;;3.86;67.37;101997.94;1769235;80;21193;-48
2021/03/31 05:32:08;;;;;;;0.60;0.47;;;;;;;3.97;67.01;102001.43;1763606;81;21135;-47
2021/03/31 05:34:35;;;;;;;0.08;0.08;;;;;;;4.09;67.01;101999.02;1770055;79;21194;-47
2021/03/31 05:37:05;;;;;;;0.60;0.42;;;;;;;4.23;66.89;102005.36;1769856;79;21170;-47
2021/03/31 05:39:34;;;;;;;1.32;0.75;;;;;;;4.36;66.63;101995.95;1778781;80;21589;-48
2021/03/31 05:42:04;;;;;;;0.65;0.65;;;;;;;4.51;65.91;102002.05;1789722;79;21564;-48
2021/03/31 05:44:32;;;;;;;1.32;0.78;;;;;;;4.63;64.80;102005.03;1755221;81;21178;-47
2021/03/31 05:46:59;;;;;;;0.53;0.53;;;;;;;4.73;64.83;102002.77;1778350;80;21152;-47
2021/03/31 05:49:27;;;;;;;1.00;1.00;;;;;;;4.84;64.74;102002.70;1770591;79;21167;-47
2021/03/31 05:51:54;;;;;;;0.28;0.28;;;;;;;4.94;64.21;101998.25;1762837;80;21104;-47
2021/03/31 05:54:23;;;;;;;0.30;0.30;;;;;;;5.05;64.01;102000.38;1762413;81;21246;-47
2021/03/31 05:56:51;;;;;;;0.10;0.10;;;;;;;5.15;63.49;101995.92;1791503;80;21127;-47
2021/03/31 05:59:19;;;;;;;0.10;0.10;;;;;;;5.24;63.17;101996.55;1790764;80;21426;-48
2021/03/31 06:01:46;;;;;;;2.20;1.02;;;;;;;5.32;62.65;101986.36;1763701;80;21177;-47
2021/03/31 06:04:17;;;;;;;0.45;0.45;;;;;;;5.45;62.61;101992.83;1744163;81;21144;-47
2021/03/31 06:06:45;;;;;;;0.93;0.60;;;;;;;5.54;62.18;101982.93;1762386;81;21203;-47
2021/03/31 06:09:13;;;;;;;1.17;1.12;;;;;;;5.68;62.29;101982.91;1767776;80;21162;-47
2021/03/31 06:11:57;;;;;;;0.20;0.20;;;;;;;5.81;61.82;101985.61;1789502;80;21402;-47
2021/03/31 06:14:36;;;;;;;1.47;1.37;;;;;;;5.93;61.46;101980.38;1784011;80;21158;-47
2021/03/31 06:17:11;;;;;;;1.65;1.02;;;;;;;6.03;61.16;101985.74;1803146;79;28002;-47
2021/03/31 06:19:40;;;;;;;0.65;0.65;;;;;;;6.11;60.59;101985.17;1783347;80;21127;-47
2021/03/31 06:25:20;;;;;;;0.37;0.37;;;;;;;6.28;60.24;101989.13;1819071;76;22761;-47
2021/03/31 06:27:53;;;;;;;0.40;0.40;;;;;;;6.30;59.96;101987.02;1785855;80;21102;-46
2021/03/31 06:30:22;;;;;;;1.65;1.55;;;;;;;6.34;59.50;101985.55;1785926;80;21141;-46
2021/03/31 06:32:50;;;;;;;0.53;0.53;;;;;;;6.41;59.50;101987.72;1785719;80;21758;-47
2021/03/31 06:35:19;;;;;;;0.68;0.68;;;;;;;6.52;59.34;101980.78;1785810;79;21522;-46
2021/03/31 06:37:49;;;;;;;0.77;0.77;;;;;;;6.67;58.97;101984.58;1749446;80;21731;-47
2021/03/31 06:43:37;;;;;;;0.62;0.62;;;;;;;7.08;58.34;101973.28;1882637;76;23259;-48
2021/03/31 06:46:04;;;;;;;0.60;0.60;;;;;;;7.25;58.95;101979.03;1820540;78;21512;-47
2021/03/31 06:48:28;;;;;;;0.70;0.62;;;;;;;7.50;57.49;101976.33;1786839;78;21131;-47
2021/03/31 06:50:56;;;;;;;1.15;1.15;;;;;;;7.68;57.03;101972.83;1824682;78;21668;-47
2021/03/31 06:53:27;;;;;;;1.20;0.47;;;;;;;7.89;57.34;101971.60;1818340;78;21135;-47
2021/03/31 06:56:04;;;;;;;1.57;0.98;;;;;;;8.09;57.02;101961.87;1813730;78;21116;-47
2021/03/31 06:58:41;;;;;;;0.35;0.35;;;;;;;8.32;56.07;101961.72;1837304;76;22774;-48
2021/03/31 07:01:25;;;;;;;0.78;0.30;;;;;;;8.39;55.73;101961.11;1702169;82;21137;-47
2021/03/31 07:03:53;;;;;;;0.37;0.23;;;;;;;8.51;55.08;101955.77;1702264;82;21189;-47
2021/03/31 07:06:21;;;;;;;0.40;0.40;;;;;;;8.63;54.54;101947.63;1732855;82;21157;-47
2021/03/31 07:08:48;;;;;;;11.85;1.87;;;;;;;8.79;54.92;101945.64;1733260;81;21579;-48
2021/03/31 07:11:40;;;;;;;1.62;1.35;;;;;;;8.93;54.62;101940.30;1703018;82;21122;-47
2021/03/31 07:14:09;;;;;;;0.50;0.50;;;;;;;9.09;53.86;101937.98;1707821;82;21140;-47
2021/03/31 07:16:39;;;;;;;1.22;1.12;;;;;;;9.17;53.46;101938.99;1719896;81;21205;-47
2021/03/31 07:19:07;;;;;;;0.28;0.28;;;;;;;9.20;53.66;101924.91;1732959;81;21149;-47
2021/03/31 07:21:37;;;;;;;0.50;0.50;;;;;;;9.23;53.27;101930.72;1699090;82;21229;-47
2021/03/31 07:24:07;;;;;;;0.95;0.85;;;;;;;9.28;53.62;101927.29;1702523;82;21130;-47
2021/03/31 07:26:35;;;;;;;0.70;0.70;;;;;;;9.35;53.54;101921.20;1732955;82;21137;-47
2021/03/31 07:29:03;;;;;;;1.22;1.12;;;;;;;9.43;53.59;101917.28;1704876;81;21935;-48
2021/03/31 07:31:31;;;;;;;1.17;0.30;;;;;;;9.58;52.64;101913.55;1732883;82;21599;-47
2021/03/31 07:34:25;;;;;;;0.98;0.95;;;;;;;9.69;53.12;101911.37;1702051;82;21418;-47
2021/03/31 07:36:54;;;;;;;1.00;0.98;;;;;;;9.82;53.29;101907.56;1732647;82;21180;-47
2021/03/31 07:39:26;;;;;;;1.20;1.20;;;;;;;9.98;52.60;101911.98;1749412;81;21176;-47
2021/03/31 07:41:54;;;;;;;2.45;2.25;;;;;;;10.10;51.84;101907.34;1752277;81;21444;-47
2021/03/31 07:44:26;;;;;;;1.80;1.15;;;;;;;10.17;50.71;101906.67;1743969;81;21000;-47
2021/03/31 07:46:53;;;;;;;2.25;2.05;;;;;;;10.21;50.80;101903.77;1732817;82;21175;-47
2021/03/31 07:49:22;;;;;;;1.45;1.05;;;;;;;10.30;50.32;101902.86;1721354;81;21131;-47
2021/03/31 07:51:59;;;;;;;1.27;1.22;;;;;;;10.40;50.71;101904.43;1724535;83;21551;-48
2021/03/31 07:54:27;;;;;;;0.40;0.40;;;;;;;10.47;49.59;101900.20;1732909;81;21142;-47
2021/03/31 07:56:57;;;;;;;0.57;0.57;;;;;;;10.49;49.47;101901.62;1731924;81;21225;-47
2021/03/31 07:59:25;;;;;;;0.42;0.42;;;;;;;10.52;48.82;101894.28;1716076;81;21195;-47
2021/03/31 08:01:56;;;;;;;0.75;0.53;;;;;;;10.59;48.68;101898.80;1719980;82;21217;-47
2021/03/31 08:04:25;;;;;;;0.90;0.90;;;;;;;10.62;48.79;101896.93;1724065;82;21130;-47
2021/03/31 08:06:56;;;;;;;0.55;0.55;;;;;;;10.67;49.20;101892.92;1736011;82;21264;-47
2021/03/31 08:09:30;;;;;;;0.47;0.47;;;;;;;10.75;49.56;101891.16;1741557;81;21145;-48
2021/03/31 08:12:06;;;;;;;1.95;0.53;;;;;;;10.83;48.85;101883.09;1727289;83;21146;-47
2021/03/31 08:14:40;;;;;;;2.98;1.47;;;;;;;10.87;47.98;101881.53;1696310;83;21459;-47
2021/03/31 08:17:14;;;;;;;1.17;1.17;;;;;;;10.92;48.13;101882.98;1722786;83;21123;-47
2021/03/31 08:19:45;;;;;;;0.90;0.75;;;;;;;11.03;47.43;101883.47;1707624;82;21659;-47
2021/03/31 08:22:26;;;;;;;1.22;1.17;;;;;;;11.13;46.78;101872.69;1734418;82;21157;-47
2021/03/31 08:24:59;;;;;;;0.68;0.68;;;;;;;11.18;46.67;101874.69;1740264;82;21121;-47
2021/03/31 08:27:28;;;;;;;0.25;0.25;;;;;;;11.19;46.79;101874.96;1727076;83;21166;-47
2021/03/31 08:29:57;;;;;;;0.70;0.68;;;;;;;11.22;47.43;101869.53;1677836;83;21166;-47
2021/03/31 08:32:26;;;;;;;1.47;0.95;;;;;;;11.26;47.32;101865.23;1707071;84;21182;-47
2021/03/31 08:34:55;;;;;;;1.02;0.75;;;;;;;11.27;47.04;101866.88;1722829;83;20995;-47
2021/03/31 08:37:30;;;;;;;3.87;0.50;;;;;;;11.27;47.28;101860.03;1706784;84;21147;-47
2021/03/31 08:40:03;;;;;;;2.60;0.82;;;;;;;11.32;47.67;101856.83;1708481;82;21138;-47
2021/03/31 08:42:31;;;;;;;2.55;1.80;;;;;;;11.39;47.50;101855.30;1706857;83;21149;-46
2021/03/31 08:45:02;;;;;;;1.70;1.60;;;;;;;11.46;47.33;101847.74;1678072;84;21579;-47
2021/03/31 08:47:32;;;;;;;1.62;1.22;;;;;;;11.51;46.72;101854.66;1723276;83;21378;-47
2021/03/31 08:50:03;;;;;;;1.15;1.05;;;;;;;11.50;46.77;101853.02;1721578;82;21142;-47
2021/03/31 08:52:34;;;;;;;5.97;2.10;;;;;;;11.48;47.06;101857.91;1704481;82;21138;-47
2021/03/31 08:55:11;;;;;;;0.72;0.72;;;;;;;11.47;47.96;101853.49;1719543;82;21166;-47
2021/03/31 08:57:38;;;;;;;2.20;1.30;;;;;;;11.53;47.43;101849.77;1756158;79;21109;-48
2021/03/31 09:00:09;;;;;;;0.45;0.45;;;;;;;11.58;46.90;101841.62;1786126;78;21436;-48
2021/03/31 09:05:17;;;;;;;1.02;0.53;;;;;;;11.72;46.78;101837.14;1842289;76;23300;-47
2021/03/31 09:07:45;;;;;;;1.75;1.15;;;;;;;11.70;47.84;101832.48;1818261;78;21106;-47
2021/03/31 09:10:13;;;;;;;2.08;1.75;;;;;;;11.73;47.71;101838.81;1812074;78;21191;-47
2021/03/31 09:12:43;;;;;;;1.98;1.85;;;;;;;11.77;48.35;101827.63;1814242;79;21173;-47
2021/03/31 09:15:12;;;;;;;0.42;0.42;;;;;;;11.83;48.66;101832.10;1815551;78;21123;-47
2021/03/31 09:17:43;;;;;;;5.28;2.20;;;;;;;11.86;48.18;101822.00;1799301;79;21119;-47
2021/03/31 09:20:12;;;;;;;1.65;1.50;;;;;;;11.91;48.23;101823.46;1803646;78;21550;-47
2021/03/31 09:22:40;;;;;;;1.32;1.17;;;;;;;11.98;48.09;101824.10;1814408;78;21182;-47
2021/03/31 09:25:11;;;;;;;2.47;2.17;;;;;;;12.04;48.13;101821.72;1803924;79;21190;-47
2021/03/31 09:27:41;;;;;;;;;;;;;;;12.15;47.85;101810.88;1798619;79;21170;-47
2021/03/31 09:30:14;;;;;;;2.55;1.07;;;;;;;12.24;47.08;101810.72;1796731;79;20251;-47
2021/03/31 09:32:53;;;;;;;1.00;0.50;;;;;;;12.28;46.71;101808.27;1759319;79;21159;-47
2021/03/31 09:35:21;;;;;;;1.92;1.12;;;;;;;12.27;45.96;101804.71;1740477;80;21173;-47
2021/03/31 09:37:53;;;;;;;1.65;0.93;;;;;;;12.25;45.98;101802.22;1737162;81;21206;-47
2021/03/31 09:40:24;;;;;;;1.32;0.80;;;;;;;12.25;45.46;101798.11;1743513;82;21487;-47
2021/03/31 09:43:01;;;;;;;0.85;0.75;;;;;;;12.29;45.39;101792.10;1776127;80;21114;-47
2021/03/31 09:45:31;;;;;;;0.95;0.95;;;;;;;12.35;46.08;101789.72;1764759;81;21147;-47
2021/03/31 09:47:59;;;;;;;1.55;0.85;;;;;;;12.39;45.97;101790.86;1750597;81;21222;-47
2021/03/31 09:50:28;;;;;;;1.45;1.30;;;;;;;12.39;46.14;101787.58;1717096;82;21136;-47
2021/03/31 09:52:59;;;;;;;0.80;0.72;;;;;;;12.43;45.75;101792.80;1745841;81;21452;-47
2021/03/31 09:55:27;;;;;;;2.12;1.98;;;;;;;12.47;45.27;101784.91;1754449;81;21023;-46
2021/03/31 09:57:55;;;;;;;0.70;0.70;;;;;;;12.57;44.55;101782.80;1757957;81;21087;-47
2021/03/31 10:00:24;;;;;;;1.15;1.02;;;;;;;12.69;43.99;101782.09;1703168;82;21134;-47
2021/03/31 10:02:52;;;;;;;1.17;1.05;;;;;;;12.81;43.47;101780.52;1731854;81;21199;-47
2021/03/31 10:05:22;;;;;;;1.15;1.05;;;;;;;12.93;43.00;101778.97;1737389;81;21484;-46
2021/03/31 10:07:57;;;;;;;3.20;1.20;;;;;;;13.00;42.83;101772.16;1730272;82;21151;-47
2021/03/31 10:10:50;;;;;;;1.25;0.85;;;;;;;13.06;43.34;101775.80;1730595;82;21119;-46
2021/03/31 10:13:20;;;;;;;5.70;2.30;;;;;;;13.09;43.21;101775.27;1764348;80;21283;-47
2021/03/31 10:16:01;;;;;;;4.97;1.17;;;;;;;13.12;42.92;101775.55;1777489;80;21699;-47
2021/03/31 10:18:32;;;;;;;3.47;1.72;;;;;;;13.12;43.33;101767.31;1782814;80;21217;-47
2021/03/31 10:21:03;;;;;;;1.50;0.80;;;;;;;13.18;43.55;101757.22;1784177;80;21173;-47
2021/03/31 10:23:34;;;;;;;0.68;0.68;;;;;;;13.24;43.08;101753.39;1782312;80;21210;-47
2021/03/31 10:26:28;;;;;;;0.88;0.88;;;;;;;13.35;43.25;101750.18;1765487;80;21169;-46
2021/03/31 10:29:00;;;;;;;2.05;1.35;;;;;;;13.50;42.33;101746.69;1759412;80;21003;-46
2021/03/31 10:31:36;;;;;;;0.70;0.70;;;;;;;13.60;42.27;101748.13;1757002;80;21183;-47
2021/03/31 10:34:07;;;;;;;0.82;0.82;;;;;;;13.66;42.52;101751.72;1764553;80;21620;-47
2021/03/31 10:54:12;;;;;;;1.27;1.27;;;;;;;13.73;41.49;101739.38;1805572;78;21146;-46
2021/03/31 10:56:47;;;;;;;0.70;0.70;;;;;;;13.83;41.85;101740.52;1834620;76;21128;-47
2021/03/31 10:59:10;;;;;;;2.62;1.40;;;;;;;13.79;42.10;101736.66;1831403;76;21225;-47
2021/03/31 11:01:38;;;;;;;0.80;0.65;;;;;;;13.71;42.29;101731.95;1777360;78;21576;-46
2021/03/31 11:04:06;;;;;;;1.50;1.02;;;;;;;13.64;42.62;101728.63;1788358;78;21170;-47
2021/03/31 11:06:35;;;;;;;1.50;1.40;;;;;;;13.63;42.81;101735.23;1802396;78;21110;-47
2021/03/31 11:09:03;;;;;;;1.22;1.12;;;;;;;13.62;42.14;101734.94;1771218;79;21135;-46
2021/03/31 11:11:33;;;;;;;1.07;0.75;;;;;;;13.62;41.64;101734.94;1778503;79;21152;-46
2021/03/31 11:14:00;;;;;;;0.65;0.65;;;;;;;13.60;41.91;101728.91;1776882;79;21197;-47
2021/03/31 11:16:29;;;;;;;0.95;0.78;;;;;;;13.55;41.71;101735.76;1780939;79;21196;-47
2021/03/31 11:27:07;;;;;;;0.80;0.50;;;;;;;13.43;42.15;101721.42;1732530;80;21177;-47
2021/03/31 11:29:35;;;;;;;1.00;0.90;;;;;;;13.46;42.30;101716.77;1785172;78;21209;-47
2021/03/31 11:32:05;;;;;;;0.45;0.45;;;;;;;13.45;43.03;101717.31;1783419;80;21186;-47
2021/03/31 11:34:33;;;;;;;1.12;1.07;;;;;;;13.44;43.17;101717.57;1785426;78;21656;-46
2021/03/31 11:37:03;;;;;;;1.25;0.85;;;;;;;13.40;43.79;101712.32;1754515;81;21161;-47
2021/03/31 11:39:31;;;;;;;1.42;0.72;;;;;;;13.37;43.64;101710.94;1754394;81;21650;-46
2021/03/31 11:41:59;;;;;;;0.45;0.42;;;;;;;13.37;43.92;101713.69;1758320;80;21158;-46
2021/03/31 11:44:27;;;;;;;0.88;0.55;;;;;;;13.19;46.54;101712.20;1761265;80;21118;-47
2021/03/31 11:46:54;;;;;;;0.45;0.42;;;;;;;12.90;48.10;101703.52;1774333;80;21157;-47
2021/03/31 11:49:23;;;;;;;0.30;0.30;;;;;;;12.51;49.12;101696.09;1736539;81;21145;-47
2021/03/31 11:51:53;;;;;;;0.70;0.70;;;;;;;12.16;49.40;101702.37;1718205;83;21178;-47
2021/03/31 11:54:21;;;;;;;0.40;0.40;;;;;;;11.79;50.64;101695.38;1721671;83;21134;-47
2021/03/31 11:56:49;;;;;;;0.60;0.60;;;;;;;11.53;52.20;101692.36;1751021;81;21119;-47
2021/03/31 11:59:18;;;;;;;1.65;1.12;;;;;;;11.37;52.86;101691.88;1708765;82;21169;-47
2021/03/31 12:01:46;;;;;;;2.42;1.90;;;;;;;11.25;53.38;101689.29;1685137;83;21146;-48
2021/03/31 12:04:15;;;;;;;1.02;0.80;;;;;;;11.22;53.56;101688.95;1732719;82;21508;-48
2021/03/31 12:06:43;;;;;;;4.17;1.32;;;;;;;11.20;54.18;101696.03;1726886;82;21048;-47
2021/03/31 12:09:11;;;;;;;1.52;1.17;;;;;;;11.14;53.89;101684.20;1718721;82;21161;-47
2021/03/31 12:11:39;;;;;;;1.32;0.98;;;;;;;11.10;54.18;101692.65;1715999;82;21146;-47
2021/03/31 12:14:08;;;;;;;4.47;0.65;;;;;;;11.06;54.99;101681.91;1705921;82;21121;-47
2021/03/31 12:16:35;;;;;;;0.30;0.20;;;;;;;11.06;55.22;101683.28;1717142;82;21137;-47
2021/03/31 12:19:05;;;;;;;0.47;0.47;;;;;;;11.07;55.13;101676.72;1730927;81;21153;-47